Terminal Aerodrome Forecast
Issued by NWS

Home | Current Version | Previous Version | Graphics & Text | Print | Product List | Glossary On
Versions: 1 2 3 4 5 6 7 8 9 10 11 12
000
FTUS43 KTOP 181731
TAFMHK
TAF
KMHK 181731Z 1818/1918 18009KT P6SM VCSH SCT012 BKN040
     FM182000 18006KT P6SM SCT025 BKN150
     FM190600 15004KT P6SM FEW200 WS009/21035KT
     FM191400 18014KT P6SM SCT200=

USA.gov is the U.S. government's official web portal to all federal, state and local government web resources and services.